Etusivu
METAR-TAF:

METAR-TAF

Lentoasemat :

Ämarin lentotukikohta

Ämari, Viro

Leveyspiiri: 59-15-44N, Pituuspiiri: 24-13-07E, korkeus merenpinnasta: 20 m

Tämänhetkinen sää

Tämä raportti tehtiin 3 tuntia ja 23 minuuttia sitten, kello 17.50 UTC
Tuuli 8 kn koillisesta
Lämpötila 14°C
Kosteus 41%
Ilmanpaine 1024 hPa
Näkyvyys 10 km tai enemmän
ei pilviä alle 1500 m:ssä eikä cumulonimbus-pilviä

METAR: EEEI 241750Z 05008KT CAVOK 14/01 Q1024 NOSIG

Aika: 00:13 (21:13 UTC)

Sääennuste

Tämä raportti tehtiin 3 tuntia ja 43 minuuttia sitten, kello 17.30 UTC
Ennuste voimassa 24. päivästä klo 18 UTC - 25. päivään klo 18 UTC
Tuuli 7 kn idästä/kaakosta
Näkyvyys 10 km tai enemmän
ei pilviä alle 1500 m:ssä eikä cumulonimbus-pilviä
Ajoittain
24. päivästä klo 18 UTC - 24. päivään klo 19 UTC
Tuuli 6 kn koillisesta

TAF: EEEI 241730Z 2418/2518 11007KT CAVOK TEMPO 2418/2419 04006KT

Säähavainnot ja -ennusteet yli 4000 lentoasemalta (METAR- ja TAF-raportit).

Käytössä olevat sääasemat on merkitty karttaan keltaisilla ja punaisilla pisteillä.

Aseta hiiri pisteen päälle nähdäksesi sääaseman nimen.

Klikkaa sitten nähdäksesi säähavainnot ja -ennusteet.

Kartan vaihtaminen: klikkaa mustalla rastilla varustettuja vihreitä pisteitä, niin voit zoomata sisään; viivalla varustettua vihreää pistettä, niin voit zoomata ulos tai vihreitä nuolia, niin pääset viereisille kartoille.


METAR-TAF: